sensor_id;sensor_type;location;lat;lon;timestamp;pressure;altitude;pressure_sealevel;temperature;humidity
64095;BME280;50353;51.420;5.682;2023-02-04T00:01:06;102978.34;;;8.30;90.29
64095;BME280;50353;51.420;5.682;2023-02-04T00:03:31;102980.84;;;7.82;92.50
64095;BME280;50353;51.420;5.682;2023-02-04T00:05:57;102977.72;;;8.12;91.74
64095;BME280;50353;51.420;5.682;2023-02-04T00:08:22;102973.09;;;8.28;91.34
64095;BME280;50353;51.420;5.682;2023-02-04T00:10:47;102971.97;;;7.87;91.84
64095;BME280;50353;51.420;5.682;2023-02-04T00:13:13;102966.63;;;7.92;92.28
64095;BME280;50353;51.420;5.682;2023-02-04T00:15:38;102963.59;;;8.20;90.79
64095;BME280;50353;51.420;5.682;2023-02-04T00:18:03;102962.13;;;8.00;92.44
64095;BME280;50353;51.420;5.682;2023-02-04T00:20:31;102966.50;;;8.01;92.05
64095;BME280;50353;51.420;5.682;2023-02-04T00:22:56;102962.72;;;8.18;91.95
64095;BME280;50353;51.420;5.682;2023-02-04T00:25:21;102963.63;;;8.18;92.34
64095;BME280;50353;51.420;5.682;2023-02-04T00:27:47;102976.63;;;8.27;91.94
64095;BME280;50353;51.420;5.682;2023-02-04T00:30:12;102972.09;;;8.37;91.29
64095;BME280;50353;51.420;5.682;2023-02-04T00:32:38;102977.34;;;8.39;91.24
64095;BME280;50353;51.420;5.682;2023-02-04T00:35:03;102978.34;;;8.30;91.16
64095;BME280;50353;51.420;5.682;2023-02-04T00:37:29;102976.78;;;8.18;91.30
64095;BME280;50353;51.420;5.682;2023-02-04T00:39:55;102976.47;;;8.40;91.62
64095;BME280;50353;51.420;5.682;2023-02-04T00:42:20;102978.91;;;8.52;91.12
64095;BME280;50353;51.420;5.682;2023-02-04T00:44:45;102987.94;;;8.36;90.95
64095;BME280;50353;51.420;5.682;2023-02-04T00:47:11;102989.63;;;8.40;91.20
64095;BME280;50353;51.420;5.682;2023-02-04T00:49:36;102986.19;;;8.35;91.19
64095;BME280;50353;51.420;5.682;2023-02-04T00:52:01;102987.44;;;8.10;91.48
64095;BME280;50353;51.420;5.682;2023-02-04T00:54:27;102994.63;;;7.99;92.39
64095;BME280;50353;51.420;5.682;2023-02-04T00:56:52;102991.06;;;8.03;94.03
64095;BME280;50353;51.420;5.682;2023-02-04T00:59:18;102996.19;;;8.12;93.04
64095;BME280;50353;51.420;5.682;2023-02-04T01:01:43;102995.38;;;8.09;92.69
64095;BME280;50353;51.420;5.682;2023-02-04T01:04:09;102998.09;;;8.01;93.31
64095;BME280;50353;51.420;5.682;2023-02-04T01:06:34;102991.09;;;8.00;93.14
64095;BME280;50353;51.420;5.682;2023-02-04T01:08:59;102991.28;;;7.88;93.89
64095;BME280;50353;51.420;5.682;2023-02-04T01:11:26;102997.66;;;7.70;94.84
64095;BME280;50353;51.420;5.682;2023-02-04T01:13:52;102991.16;;;7.97;94.41
64095;BME280;50353;51.420;5.682;2023-02-04T01:16:17;102997.78;;;7.60;93.62
64095;BME280;50353;51.420;5.682;2023-02-04T01:18:42;102993.22;;;7.75;94.80
64095;BME280;50353;51.420;5.682;2023-02-04T01:21:08;102998.22;;;7.95;94.04
64095;BME280;50353;51.420;5.682;2023-02-04T01:23:33;102993.00;;;7.89;93.02
64095;BME280;50353;51.420;5.682;2023-02-04T01:25:58;102998.50;;;7.73;93.49
64095;BME280;50353;51.420;5.682;2023-02-04T01:28:23;103006.78;;;7.42;96.09
64095;BME280;50353;51.420;5.682;2023-02-04T01:30:49;103011.81;;;7.63;94.41
64095;BME280;50353;51.420;5.682;2023-02-04T01:33:14;103016.13;;;7.67;94.36
64095;BME280;50353;51.420;5.682;2023-02-04T01:35:39;103015.91;;;7.84;93.75
64095;BME280;50353;51.420;5.682;2023-02-04T01:38:05;103019.94;;;7.42;95.02
64095;BME280;50353;51.420;5.682;2023-02-04T01:40:30;103027.56;;;7.64;94.03
64095;BME280;50353;51.420;5.682;2023-02-04T01:42:55;103031.13;;;7.60;93.84
64095;BME280;50353;51.420;5.682;2023-02-04T01:45:21;103034.50;;;7.71;93.50
64095;BME280;50353;51.420;5.682;2023-02-04T01:47:46;103034.94;;;7.34;94.42
64095;BME280;50353;51.420;5.682;2023-02-04T01:50:13;103025.28;;;7.36;94.50
64095;BME280;50353;51.420;5.682;2023-02-04T01:52:40;103042.00;;;7.32;94.89
64095;BME280;50353;51.420;5.682;2023-02-04T01:55:15;103044.44;;;7.48;93.45
64095;BME280;50353;51.420;5.682;2023-02-04T01:57:41;103049.75;;;7.41;93.38
64095;BME280;50353;51.420;5.682;2023-02-04T02:00:16;103048.03;;;7.42;93.34
64095;BME280;50353;51.420;5.682;2023-02-04T02:02:49;103049.91;;;7.27;93.13
64095;BME280;50353;51.420;5.682;2023-02-04T02:05:18;103043.75;;;7.32;93.62
64095;BME280;50353;51.420;5.682;2023-02-04T02:07:46;103051.78;;;7.18;93.22
64095;BME280;50353;51.420;5.682;2023-02-04T02:10:13;103059.78;;;7.07;93.49
64095;BME280;50353;51.420;5.682;2023-02-04T02:12:39;103057.09;;;7.11;93.02
64095;BME280;50353;51.420;5.682;2023-02-04T02:15:06;103059.78;;;7.07;93.06
64095;BME280;50353;51.420;5.682;2023-02-04T02:17:32;103053.88;;;6.83;94.95
64095;BME280;50353;51.420;5.682;2023-02-04T02:19:58;103059.84;;;6.99;94.23
64095;BME280;50353;51.420;5.682;2023-02-04T02:22:28;103066.13;;;6.81;94.02
64095;BME280;50353;51.420;5.682;2023-02-04T02:24:54;103068.75;;;6.83;93.89
64095;BME280;50353;51.420;5.682;2023-02-04T02:27:20;103071.47;;;6.70;94.63
64095;BME280;50353;51.420;5.682;2023-02-04T02:29:46;103064.53;;;6.63;93.49
64095;BME280;50353;51.420;5.682;2023-02-04T02:32:13;103055.78;;;6.63;94.41
64095;BME280;50353;51.420;5.682;2023-02-04T02:34:38;103063.59;;;6.69;94.42
64095;BME280;50353;51.420;5.682;2023-02-04T02:37:05;103073.19;;;6.74;93.11
64095;BME280;50353;51.420;5.682;2023-02-04T02:39:33;103067.06;;;6.74;91.75
64095;BME280;50353;51.420;5.682;2023-02-04T02:41:58;103063.59;;;6.69;91.90
64095;BME280;50353;51.420;5.682;2023-02-04T02:44:24;103068.97;;;6.55;91.61
64095;BME280;50353;51.420;5.682;2023-02-04T02:46:51;103067.19;;;6.57;91.32
64095;BME280;50353;51.420;5.682;2023-02-04T02:49:18;103064.66;;;6.45;90.95
64095;BME280;50353;51.420;5.682;2023-02-04T02:51:44;103084.84;;;6.38;90.18
64095;BME280;50353;51.420;5.682;2023-02-04T02:54:29;103077.84;;;6.38;91.03
64095;BME280;50353;51.420;5.682;2023-02-04T02:56:56;103073.50;;;6.31;93.78
64095;BME280;50353;51.420;5.682;2023-02-04T02:59:22;103080.50;;;6.31;91.72
64095;BME280;50353;51.420;5.682;2023-02-04T03:01:51;103073.56;;;6.25;92.49
64095;BME280;50353;51.420;5.682;2023-02-04T03:04:19;103083.94;;;6.42;91.74
64095;BME280;50353;51.420;5.682;2023-02-04T03:06:45;103088.47;;;6.17;91.71
64095;BME280;50353;51.420;5.682;2023-02-04T03:09:10;103079.66;;;6.25;91.99
64095;BME280;50353;51.420;5.682;2023-02-04T03:11:36;103086.66;;;6.26;92.25
64095;BME280;50353;51.420;5.682;2023-02-04T03:14:02;103085.81;;;6.21;92.36
64095;BME280;50353;51.420;5.682;2023-02-04T03:16:29;103090.16;;;6.29;91.53
64095;BME280;50353;51.420;5.682;2023-02-04T03:18:58;103083.97;;;6.39;93.79
64095;BME280;50353;51.420;5.682;2023-02-04T03:21:23;103081.38;;;6.33;93.60
64095;BME280;50353;51.420;5.682;2023-02-04T03:23:49;103089.28;;;6.30;92.02
64095;BME280;50353;51.420;5.682;2023-02-04T03:26:15;103095.59;;;5.79;92.80
64095;BME280;50353;51.420;5.682;2023-02-04T03:28:41;103100.88;;;5.73;93.18
64095;BME280;50353;51.420;5.682;2023-02-04T03:31:07;103103.50;;;5.74;90.93
64095;BME280;50353;51.420;5.682;2023-02-04T03:33:32;103104.38;;;5.70;89.85
64095;BME280;50353;51.420;5.682;2023-02-04T03:36:00;103097.44;;;5.54;89.54
64095;BME280;50353;51.420;5.682;2023-02-04T03:38:26;103105.28;;;5.63;89.58
64095;BME280;50353;51.420;5.682;2023-02-04T03:40:51;103106.19;;;5.59;89.47
64095;BME280;50353;51.420;5.682;2023-02-04T03:43:16;103099.16;;;5.53;89.17
64095;BME280;50353;51.420;5.682;2023-02-04T03:45:42;103107.06;;;5.58;89.79
64095;BME280;50353;51.420;5.682;2023-02-04T03:48:07;103104.38;;;5.66;89.31
64095;BME280;50353;51.420;5.682;2023-02-04T03:50:32;103111.47;;;5.39;87.75
64095;BME280;50353;51.420;5.682;2023-02-04T03:52:58;103108.81;;;5.44;88.53
64095;BME280;50353;51.420;5.682;2023-02-04T03:55:25;103113.19;;;5.51;89.71
64095;BME280;50353;51.420;5.682;2023-02-04T03:57:51;103113.13;;;5.75;91.71
64095;BME280;50353;51.420;5.682;2023-02-04T04:00:17;103117.44;;;5.86;93.20
64095;BME280;50353;51.420;5.682;2023-02-04T04:02:42;103120.06;;;5.92;94.28
64095;BME280;50353;51.420;5.682;2023-02-04T04:05:08;103120.94;;;5.97;94.99
64095;BME280;50353;51.420;5.682;2023-02-04T04:07:34;103115.75;;;5.62;92.80
64095;BME280;50353;51.420;5.682;2023-02-04T04:09:59;103115.78;;;5.66;92.87
64095;BME280;50353;51.420;5.682;2023-02-04T04:12:24;103109.66;;;5.63;91.85
64095;BME280;50353;51.420;5.682;2023-02-04T04:14:50;103108.81;;;5.59;91.64
64095;BME280;50353;51.420;5.682;2023-02-04T04:17:15;103114.00;;;5.68;93.55
64095;BME280;50353;51.420;5.682;2023-02-04T04:19:40;103114.81;;;5.87;91.85
64095;BME280;50353;51.420;5.682;2023-02-04T04:22:07;103118.41;;;5.58;91.14
64095;BME280;50353;51.420;5.682;2023-02-04T04:24:33;103121.06;;;5.46;91.84
64095;BME280;50353;51.420;5.682;2023-02-04T04:26:58;103119.31;;;5.45;92.71
64095;BME280;50353;51.420;5.682;2023-02-04T04:29:23;103128.84;;;5.88;93.61
64095;BME280;50353;51.420;5.682;2023-02-04T04:31:48;103121.81;;;5.90;92.83
64095;BME280;50353;51.420;5.682;2023-02-04T04:34:14;103142.03;;;5.54;94.67
64095;BME280;50353;51.420;5.682;2023-02-04T04:36:39;103136.81;;;5.15;90.13
64095;BME280;50353;51.420;5.682;2023-02-04T04:39:04;103141.19;;;5.29;91.44
64095;BME280;50353;51.420;5.682;2023-02-04T04:41:30;103131.59;;;4.94;94.03
64095;BME280;50353;51.420;5.682;2023-02-04T04:43:55;103132.44;;;5.42;94.11
64095;BME280;50353;51.420;5.682;2023-02-04T04:46:20;103135.84;;;5.76;94.19
64095;BME280;50353;51.420;5.682;2023-02-04T04:48:45;103135.91;;;5.56;93.52
64095;BME280;50353;51.420;5.682;2023-02-04T04:51:11;103124.53;;;5.64;92.92
64095;BME280;50353;51.420;5.682;2023-02-04T04:53:36;103132.34;;;5.85;92.48
64095;BME280;50353;51.420;5.682;2023-02-04T04:56:01;103131.50;;;5.77;93.14
64095;BME280;50353;51.420;5.682;2023-02-04T04:58:26;103140.22;;;5.84;92.64
64095;BME280;50353;51.420;5.682;2023-02-04T05:00:52;103139.34;;;5.72;91.99
64095;BME280;50353;51.420;5.682;2023-02-04T05:03:17;103140.28;;;5.44;93.35
64095;BME280;50353;51.420;5.682;2023-02-04T05:05:42;103141.16;;;5.55;94.59
64095;BME280;50353;51.420;5.682;2023-02-04T05:08:08;103132.41;;;5.64;95.28
64095;BME280;50353;51.420;5.682;2023-02-04T05:10:37;103142.88;;;5.67;95.20
64095;BME280;50353;51.420;5.682;2023-02-04T05:13:02;103145.50;;;5.74;95.64
64095;BME280;50353;51.420;5.682;2023-02-04T05:15:28;103150.69;;;5.96;95.98
64095;BME280;50353;51.420;5.682;2023-02-04T05:17:53;103140.06;;;6.30;95.16
64095;BME280;50353;51.420;5.682;2023-02-04T05:20:18;103146.00;;;6.58;94.09
64095;BME280;50353;51.420;5.682;2023-02-04T05:22:43;103146.09;;;6.45;94.96
64095;BME280;50353;51.420;5.682;2023-02-04T05:25:09;103157.38;;;6.68;94.38
64095;BME280;50353;51.420;5.682;2023-02-04T05:27:35;103162.56;;;6.74;94.43
64095;BME280;50353;51.420;5.682;2023-02-04T05:30:00;103160.97;;;6.47;96.01
64095;BME280;50353;51.420;5.682;2023-02-04T05:32:26;103164.53;;;6.35;96.84
64095;BME280;50353;51.420;5.682;2023-02-04T05:34:51;103169.94;;;6.04;98.69
64095;BME280;50353;51.420;5.682;2023-02-04T05:37:16;103164.66;;;6.11;99.53
64095;BME280;50353;51.420;5.682;2023-02-04T05:39:43;103169.75;;;6.48;98.75
64095;BME280;50353;51.420;5.682;2023-02-04T05:42:08;103162.72;;;6.51;97.96
64095;BME280;50353;51.420;5.682;2023-02-04T05:44:33;103160.91;;;6.63;97.72
64095;BME280;50353;51.420;5.682;2023-02-04T05:46:59;103174.88;;;6.71;97.39
64095;BME280;50353;51.420;5.682;2023-02-04T05:49:24;103176.53;;;6.86;96.30
64095;BME280;50353;51.420;5.682;2023-02-04T05:51:49;103174.09;;;6.53;98.22
64095;BME280;50353;51.420;5.682;2023-02-04T05:54:14;103174.97;;;6.52;98.39
64095;BME280;50353;51.420;5.682;2023-02-04T05:56:44;103177.56;;;6.57;98.44
64095;BME280;50353;51.420;5.682;2023-02-04T05:59:09;103184.53;;;6.61;98.36
64095;BME280;50353;51.420;5.682;2023-02-04T06:01:35;103176.47;;;6.92;96.63
64095;BME280;50353;51.420;5.682;2023-02-04T06:04:00;103181.63;;;7.04;94.90
64095;BME280;50353;51.420;5.682;2023-02-04T06:06:25;103185.19;;;7.00;95.43
64095;BME280;50353;51.420;5.682;2023-02-04T06:08:50;103192.31;;;6.83;96.68
64095;BME280;50353;51.420;5.682;2023-02-04T06:11:16;103201.13;;;6.75;97.21
64095;BME280;50353;51.420;5.682;2023-02-04T06:13:41;103194.09;;;6.81;97.79
64095;BME280;50353;51.420;5.682;2023-02-04T06:16:06;103193.25;;;6.74;97.44
64095;BME280;50353;51.420;5.682;2023-02-04T06:18:32;103189.84;;;6.55;98.67
64095;BME280;50353;51.420;5.682;2023-02-04T06:20:57;103198.59;;;6.57;99.29
64095;BME280;50353;51.420;5.682;2023-02-04T06:23:22;103210.00;;;6.53;100.00
64095;BME280;50353;51.420;5.682;2023-02-04T06:25:48;103217.03;;;6.46;100.00
64095;BME280;50353;51.420;5.682;2023-02-04T06:28:14;103215.34;;;6.34;100.00
64095;BME280;50353;51.420;5.682;2023-02-04T06:30:39;103215.28;;;6.48;100.00
64095;BME280;50353;51.420;5.682;2023-02-04T06:33:05;103215.25;;;6.57;100.00
64095;BME280;50353;51.420;5.682;2023-02-04T06:35:30;103219.66;;;6.46;100.00
64095;BME280;50353;51.420;5.682;2023-02-04T06:37:55;103233.69;;;6.43;100.00
64095;BME280;50353;51.420;5.682;2023-02-04T06:40:20;103229.31;;;6.46;100.00
64095;BME280;50353;51.420;5.682;2023-02-04T06:42:46;103229.34;;;6.32;100.00
64095;BME280;50353;51.420;5.682;2023-02-04T06:45:11;103222.38;;;6.29;100.00
64095;BME280;50353;51.420;5.682;2023-02-04T06:47:36;103238.97;;;6.30;100.00
64095;BME280;50353;51.420;5.682;2023-02-04T06:50:02;103242.50;;;6.32;100.00
64095;BME280;50353;51.420;5.682;2023-02-04T06:52:27;103236.28;;;6.56;100.00
64095;BME280;50353;51.420;5.682;2023-02-04T06:54:53;103240.66;;;6.54;100.00
64095;BME280;50353;51.420;5.682;2023-02-04T06:57:18;103240.59;;;6.65;100.00
64095;BME280;50353;51.420;5.682;2023-02-04T06:59:43;103249.34;;;6.71;100.00
64095;BME280;50353;51.420;5.682;2023-02-04T07:02:10;103247.66;;;6.56;100.00
64095;BME280;50353;51.420;5.682;2023-02-04T07:04:36;103250.28;;;6.55;100.00
64095;BME280;50353;51.420;5.682;2023-02-04T07:07:02;103252.97;;;6.44;100.00
64095;BME280;50353;51.420;5.682;2023-02-04T07:09:27;103258.16;;;6.56;100.00
64095;BME280;50353;51.420;5.682;2023-02-04T07:11:53;103259.91;;;6.53;100.00
64095;BME280;50353;51.420;5.682;2023-02-04T07:14:18;103259.84;;;6.70;100.00
64095;BME280;50353;51.420;5.682;2023-02-04T07:16:44;103271.31;;;6.50;100.00
64095;BME280;50353;51.420;5.682;2023-02-04T07:19:09;103266.91;;;6.57;100.00
64095;BME280;50353;51.420;5.682;2023-02-04T07:21:34;103273.94;;;6.55;100.00
64095;BME280;50353;51.420;5.682;2023-02-04T07:24:00;103268.59;;;6.70;100.00
64095;BME280;50353;51.420;5.682;2023-02-04T07:26:25;103272.97;;;6.74;100.00
64095;BME280;50353;51.420;5.682;2023-02-04T07:28:50;103272.97;;;6.79;100.00
64095;BME280;50353;51.420;5.682;2023-02-04T07:31:16;103273.00;;;6.65;100.00
64095;BME280;50353;51.420;5.682;2023-02-04T07:33:41;103268.63;;;6.69;100.00
64095;BME280;50353;51.420;5.682;2023-02-04T07:36:07;103273.00;;;6.65;100.00
64095;BME280;50353;51.420;5.682;2023-02-04T07:38:32;103280.88;;;6.73;100.00
64095;BME280;50353;51.420;5.682;2023-02-04T07:40:58;103287.00;;;6.70;100.00
64095;BME280;50353;51.420;5.682;2023-02-04T07:43:23;103292.19;;;6.83;100.00
64095;BME280;50353;51.420;5.682;2023-02-04T07:45:48;103300.06;;;6.92;100.00
64095;BME280;50353;51.420;5.682;2023-02-04T07:48:14;103294.03;;;6.70;100.00
64095;BME280;50353;51.420;5.682;2023-02-04T07:50:39;103299.25;;;6.81;100.00
64095;BME280;50353;51.420;5.682;2023-02-04T07:53:04;103291.31;;;6.85;100.00
64095;BME280;50353;51.420;5.682;2023-02-04T07:55:30;103289.63;;;6.75;100.00
64095;BME280;50353;51.420;5.682;2023-02-04T07:57:55;103299.25;;;6.73;100.00
64095;BME280;50353;51.420;5.682;2023-02-04T08:00:20;103293.97;;;6.84;100.00
64095;BME280;50353;51.420;5.682;2023-02-04T08:02:46;103302.75;;;6.73;100.00
64095;BME280;50353;51.420;5.682;2023-02-04T08:05:12;103300.13;;;6.78;100.00
64095;BME280;50353;51.420;5.682;2023-02-04T08:07:37;103291.19;;;7.10;100.00
64095;BME280;50353;51.420;5.682;2023-02-04T08:10:04;103292.03;;;7.14;100.00
64095;BME280;50353;51.420;5.682;2023-02-04T08:12:30;103307.00;;;6.99;100.00
64095;BME280;50353;51.420;5.682;2023-02-04T08:14:55;103309.59;;;7.10;100.00
64095;BME280;50353;51.420;5.682;2023-02-04T08:17:20;103308.78;;;7.00;100.00
64095;BME280;50353;51.420;5.682;2023-02-04T08:19:46;103308.69;;;7.13;100.00
64095;BME280;50353;51.420;5.682;2023-02-04T08:22:11;103319.22;;;7.17;100.00
64095;BME280;50353;51.420;5.682;2023-02-04T08:24:36;103328.03;;;7.05;100.00
64095;BME280;50353;51.420;5.682;2023-02-04T08:27:02;103331.47;;;7.17;100.00
64095;BME280;50353;51.420;5.682;2023-02-04T08:29:27;103332.44;;;7.06;100.00
64095;BME280;50353;51.420;5.682;2023-02-04T08:31:52;103326.31;;;7.00;100.00
64095;BME280;50353;51.420;5.682;2023-02-04T08:34:18;103333.31;;;7.04;100.00
64095;BME280;50353;51.420;5.682;2023-02-04T08:36:43;103333.22;;;7.19;100.00
64095;BME280;50353;51.420;5.682;2023-02-04T08:39:09;103332.31;;;7.25;100.00
64095;BME280;50353;51.420;5.682;2023-02-04T08:41:34;103336.66;;;7.34;100.00
64095;BME280;50353;51.420;5.682;2023-02-04T08:44:00;103337.41;;;7.51;100.00
64095;BME280;50353;51.420;5.682;2023-02-04T08:46:25;103340.91;;;7.52;100.00
64095;BME280;50353;51.420;5.682;2023-02-04T08:48:50;103335.66;;;7.52;100.00
64095;BME280;50353;51.420;5.682;2023-02-04T08:51:15;103332.97;;;7.59;100.00
64095;BME280;50353;51.420;5.682;2023-02-04T08:53:41;103331.25;;;7.55;100.00
64095;BME280;50353;51.420;5.682;2023-02-04T08:56:06;103333.91;;;7.51;100.00
64095;BME280;50353;51.420;5.682;2023-02-04T08:58:33;103337.25;;;7.71;100.00
64095;BME280;50353;51.420;5.682;2023-02-04T09:00:59;103350.31;;;7.82;100.00
64095;BME280;50353;51.420;5.682;2023-02-04T09:03:24;103350.38;;;7.79;99.88
64095;BME280;50353;51.420;5.682;2023-02-04T09:05:49;103348.75;;;7.63;100.00
64095;BME280;50353;51.420;5.682;2023-02-04T09:08:15;103342.56;;;7.62;100.00
64095;BME280;50353;51.420;5.682;2023-02-04T09:10:40;103343.44;;;7.66;100.00
64095;BME280;50353;51.420;5.682;2023-02-04T09:13:05;103349.59;;;7.61;100.00
64095;BME280;50353;51.420;5.682;2023-02-04T09:15:33;103357.41;;;7.78;100.00
64095;BME280;50353;51.420;5.682;2023-02-04T09:17:58;103364.44;;;7.75;100.00
64095;BME280;50353;51.420;5.682;2023-02-04T09:20:35;103365.44;;;7.58;100.00
64095;BME280;50353;51.420;5.682;2023-02-04T09:23:01;103361.03;;;7.59;100.00
64095;BME280;50353;51.420;5.682;2023-02-04T09:25:26;103364.38;;;7.83;100.00
64095;BME280;50353;51.420;5.682;2023-02-04T09:27:52;103365.31;;;7.78;100.00
64095;BME280;50353;51.420;5.682;2023-02-04T09:30:17;103369.78;;;7.64;100.00
64095;BME280;50353;51.420;5.682;2023-02-04T09:32:42;103361.84;;;7.70;100.00
64095;BME280;50353;51.420;5.682;2023-02-04T09:35:08;103366.91;;;7.92;100.00
64095;BME280;50353;51.420;5.682;2023-02-04T09:37:33;103367.91;;;7.82;100.00
64095;BME280;50353;51.420;5.682;2023-02-04T09:39:58;103367.13;;;7.70;100.00
64095;BME280;50353;51.420;5.682;2023-02-04T09:42:25;103374.81;;;7.97;100.00
64095;BME280;50353;51.420;5.682;2023-02-04T09:44:50;103379.19;;;7.98;100.00
64095;BME280;50353;51.420;5.682;2023-02-04T09:47:19;103367.69;;;8.06;100.00
64095;BME280;50353;51.420;5.682;2023-02-04T09:49:46;103368.47;;;8.18;99.90
64095;BME280;50353;51.420;5.682;2023-02-04T09:52:13;103371.94;;;8.23;99.49
64095;BME280;50353;51.420;5.682;2023-02-04T09:54:40;103364.00;;;8.24;100.00
64095;BME280;50353;51.420;5.682;2023-02-04T09:57:14;103362.09;;;8.42;97.67
64095;BME280;50353;51.420;5.682;2023-02-04T09:59:42;103377.91;;;8.42;97.85
64095;BME280;50353;51.420;5.682;2023-02-04T10:02:16;103376.19;;;8.36;97.51
64095;BME280;50353;51.420;5.682;2023-02-04T10:04:44;103380.59;;;8.34;96.17
64095;BME280;50353;51.420;5.682;2023-02-04T10:07:11;103377.88;;;8.43;96.71
64095;BME280;50353;51.420;5.682;2023-02-04T10:09:38;103379.59;;;8.49;97.51
64095;BME280;50353;51.420;5.682;2023-02-04T10:12:05;103372.59;;;8.46;95.99
64095;BME280;50353;51.420;5.682;2023-02-04T10:14:30;103388.41;;;8.43;96.64
64095;BME280;50353;51.420;5.682;2023-02-04T10:16:58;103382.25;;;8.48;96.02
64095;BME280;50353;51.420;5.682;2023-02-04T10:19:26;103391.84;;;8.58;94.95
64095;BME280;50353;51.420;5.682;2023-02-04T10:21:52;103396.00;;;8.77;93.95
64095;BME280;50353;51.420;5.682;2023-02-04T10:24:20;103389.16;;;9.31;91.28
64095;BME280;50353;51.420;5.682;2023-02-04T10:26:47;103396.84;;;9.50;90.10
64095;BME280;50353;51.420;5.682;2023-02-04T10:29:15;103386.50;;;9.34;90.59
64095;BME280;50353;51.420;5.682;2023-02-04T10:31:44;103397.94;;;9.35;89.84
64095;BME280;50353;51.420;5.682;2023-02-04T10:34:16;103394.31;;;8.72;90.64
64095;BME280;50353;51.420;5.682;2023-02-04T10:36:44;103400.75;;;9.21;90.25
64095;BME280;50353;51.420;5.682;2023-02-04T10:41:36;103390.31;;;9.75;87.14
64095;BME280;50353;51.420;5.682;2023-02-04T10:44:09;103388.28;;;9.93;85.96
64095;BME280;50353;51.420;5.682;2023-02-04T10:46:35;103395.38;;;9.89;86.23
64095;BME280;50353;51.420;5.682;2023-02-04T10:49:03;103386.03;;;9.68;86.13
64095;BME280;50353;51.420;5.682;2023-02-04T10:51:29;103409.91;;;9.59;86.50
64095;BME280;50353;51.420;5.682;2023-02-04T10:53:54;103409.72;;;9.71;86.83
64095;BME280;50353;51.420;5.682;2023-02-04T10:56:39;103407.88;;;9.78;84.25
64095;BME280;50353;51.420;5.682;2023-02-04T10:59:05;103405.53;;;9.58;84.47
64095;BME280;50353;51.420;5.682;2023-02-04T11:01:31;103404.22;;;9.85;84.58
64095;BME280;50353;51.420;5.682;2023-02-04T11:03:56;103393.09;;;10.19;84.41
64095;BME280;50353;51.420;5.682;2023-02-04T11:06:23;103402.09;;;10.07;82.91
64095;BME280;50353;51.420;5.682;2023-02-04T11:08:49;103397.19;;;10.40;82.13
64095;BME280;50353;51.420;5.682;2023-02-04T11:11:20;103383.16;;;10.32;81.65
64095;BME280;50353;51.420;5.682;2023-02-04T11:21:14;103394.44;;;10.90;78.04
64095;BME280;50353;51.420;5.682;2023-02-04T11:23:45;103389.13;;;10.92;76.88
64095;BME280;50353;51.420;5.682;2023-02-04T11:26:16;103385.25;;;11.08;76.04
64095;BME280;50353;51.420;5.682;2023-02-04T11:31:26;103391.22;;;10.76;76.34
64095;BME280;50353;51.420;5.682;2023-02-04T11:34:11;103386.75;;;10.31;77.82
64095;BME280;50353;51.420;5.682;2023-02-04T11:39:37;103387.44;;;10.42;77.50
64095;BME280;50353;51.420;5.682;2023-02-04T11:42:16;103380.84;;;10.15;77.57
64095;BME280;50353;51.420;5.682;2023-02-04T11:44:41;103381.41;;;10.32;77.81
64095;BME280;50353;51.420;5.682;2023-02-04T11:47:12;103383.09;;;11.26;76.21
64095;BME280;50353;51.420;5.682;2023-02-04T11:49:41;103379.31;;;11.77;74.55
64095;BME280;50353;51.420;5.682;2023-02-04T11:52:12;103376.66;;;12.13;74.27
64095;BME280;50353;51.420;5.682;2023-02-04T11:54:38;103381.31;;;12.03;74.56
64095;BME280;50353;51.420;5.682;2023-02-04T11:57:04;103385.66;;;11.30;72.48
64095;BME280;50353;51.420;5.682;2023-02-04T11:59:29;103385.19;;;11.50;71.61
64095;BME280;50353;51.420;5.682;2023-02-04T12:02:12;103382.22;;;11.27;74.05
64095;BME280;50353;51.420;5.682;2023-02-04T12:07:23;103388.81;;;11.07;72.73
64095;BME280;50353;51.420;5.682;2023-02-04T12:09:49;103385.47;;;10.99;73.94
64095;BME280;50353;51.420;5.682;2023-02-04T12:12:23;103365.88;;;11.06;74.02
64095;BME280;50353;51.420;5.682;2023-02-04T12:14:57;103377.50;;;11.01;72.64
64095;BME280;50353;51.420;5.682;2023-02-04T12:17:22;103384.53;;;11.00;71.21
64095;BME280;50353;51.420;5.682;2023-02-04T12:19:47;103374.91;;;10.96;74.48
64095;BME280;50353;51.420;5.682;2023-02-04T12:22:13;103378.59;;;10.89;75.41
64095;BME280;50353;51.420;5.682;2023-02-04T12:24:39;103390.19;;;10.83;74.19
64095;BME280;50353;51.420;5.682;2023-02-04T12:27:05;103390.09;;;10.88;73.85
64095;BME280;50353;51.420;5.682;2023-02-04T12:29:30;103387.41;;;10.89;74.42
64095;BME280;50353;51.420;5.682;2023-02-04T12:31:55;103386.09;;;11.10;72.91
64095;BME280;50353;51.420;5.682;2023-02-04T12:34:20;103394.97;;;11.08;73.21
64095;BME280;50353;51.420;5.682;2023-02-04T12:36:46;103392.53;;;10.97;70.95
64095;BME280;50353;51.420;5.682;2023-02-04T12:39:11;103388.59;;;10.74;72.82
64095;BME280;50353;51.420;5.682;2023-02-04T12:41:36;103390.94;;;10.90;72.65
64095;BME280;50353;51.420;5.682;2023-02-04T12:44:02;103399.81;;;10.87;75.21
64095;BME280;50353;51.420;5.682;2023-02-04T12:46:28;103399.53;;;10.56;74.17
64095;BME280;50353;51.420;5.682;2023-02-04T12:48:54;103394.84;;;10.72;72.84
64095;BME280;50353;51.420;5.682;2023-02-04T12:51:19;103388.47;;;10.80;72.11
64095;BME280;50353;51.420;5.682;2023-02-04T12:53:46;103399.94;;;10.79;72.26
64095;BME280;50353;51.420;5.682;2023-02-04T12:56:12;103399.19;;;11.16;74.58
64095;BME280;50353;51.420;5.682;2023-02-04T12:58:38;103393.53;;;11.33;72.37
64095;BME280;50353;51.420;5.682;2023-02-04T13:01:03;103402.41;;;11.31;70.40
64095;BME280;50353;51.420;5.682;2023-02-04T13:03:28;103401.84;;;11.16;69.80
64095;BME280;50353;51.420;5.682;2023-02-04T13:05:54;103402.59;;;10.79;71.02
64095;BME280;50353;51.420;5.682;2023-02-04T13:08:20;103399.47;;;10.59;72.13